createdAt,value
2022-10-04T00:01:12.968Z,101443.72
2022-10-04T00:03:42.868Z,101516.75
2022-10-04T00:06:23.996Z,101507.22
2022-10-04T00:09:21.774Z,101500.91
2022-10-04T00:12:05.620Z,101516.22
2022-10-04T00:14:37.778Z,101509.28
2022-10-04T00:17:27.793Z,101456.88
2022-10-04T00:21:03.772Z,101496.31
2022-10-04T00:23:44.998Z,101515.16
2022-10-04T00:26:23.708Z,101510.69
2022-10-04T00:28:52.038Z,101496.38
2022-10-04T00:31:18.990Z,101518.53
2022-10-04T00:33:51.365Z,101516.09
2022-10-04T00:36:24.056Z,101519.44
2022-10-04T00:39:29.836Z,101505.03
2022-10-04T00:42:24.471Z,101491.72
2022-10-04T00:45:24.803Z,101526.28
2022-10-04T00:48:07.987Z,101529.50
2022-10-04T00:50:45.893Z,101467.72
2022-10-04T00:53:32.692Z,101485.16
2022-10-04T00:56:04.589Z,101397.16
2022-10-04T00:58:45.395Z,101438.78
2022-10-04T01:01:12.436Z,101508.06
2022-10-04T01:03:44.074Z,101498.84
2022-10-04T01:06:13.563Z,101525.66
2022-10-04T01:08:47.499Z,101520.31
2022-10-04T01:11:23.556Z,101484.97
2022-10-04T01:13:58.558Z,101530.41
2022-10-04T01:16:47.785Z,101524.19
2022-10-04T01:19:48.796Z,101479.75
2022-10-04T01:22:37.366Z,101512.06
2022-10-04T01:25:04.566Z,101511.63
2022-10-04T01:27:40.362Z,101511.66
2022-10-04T01:30:14.202Z,101512.47
2022-10-04T01:32:42.196Z,101435.34
2022-10-04T01:35:15.338Z,101440.63
2022-10-04T01:38:02.812Z,101480.47
2022-10-04T01:41:08.812Z,101515.22
2022-10-04T01:44:13.878Z,101506.34
2022-10-04T01:46:55.973Z,101509.72
2022-10-04T01:49:30.618Z,101484.81
2022-10-04T01:52:07.397Z,101501.41
2022-10-04T01:54:39.566Z,101502.78
2022-10-04T01:57:14.171Z,101432.38
2022-10-04T01:59:50.093Z,101508.25
2022-10-04T02:02:35.530Z,101494.06
2022-10-04T02:05:06.563Z,101505.88
2022-10-04T02:07:36.913Z,101462.28
2022-10-04T02:10:09.171Z,101501.34
2022-10-04T02:12:38.734Z,101436.13
2022-10-04T02:15:09.476Z,101512.63
2022-10-04T02:17:57.835Z,101450.13
2022-10-04T02:21:00.853Z,101477.78
2022-10-04T02:23:42.434Z,101490.06
2022-10-04T02:26:11.240Z,101501.78
2022-10-04T02:28:40.308Z,101437.50
2022-10-04T02:31:27.453Z,101299.16
2022-10-04T02:33:58.026Z,101499.38
2022-10-04T02:36:28.637Z,101470.97
2022-10-04T02:39:31.885Z,101419.91
2022-10-04T02:42:32.331Z,101459.78
2022-10-04T02:45:26.854Z,101481.28
2022-10-04T02:48:50.927Z,101496.84
2022-10-04T02:51:34.105Z,101498.47
2022-10-04T02:54:19.131Z,101500.84
2022-10-04T02:56:53.111Z,101454.44
2022-10-04T02:59:21.046Z,101502.41
2022-10-04T03:01:59.731Z,101422.00
2022-10-04T03:04:30.778Z,101511.38
2022-10-04T03:07:02.071Z,101462.41
2022-10-04T03:09:30.303Z,101434.03
2022-10-04T03:11:57.594Z,101490.00
2022-10-04T03:14:29.384Z,101511.66
2022-10-04T03:17:18.886Z,101466.38
2022-10-04T03:20:21.853Z,101451.09
2022-10-04T03:23:04.380Z,101409.22
2022-10-04T03:25:45.003Z,101522.91
2022-10-04T03:28:12.146Z,101520.94
2022-10-04T03:30:44.363Z,101522.84
2022-10-04T03:33:23.185Z,101518.38
2022-10-04T03:35:56.824Z,101470.53
2022-10-04T03:38:47.884Z,101530.84
2022-10-04T03:41:28.639Z,101487.94
2022-10-04T03:44:15.990Z,101474.91
2022-10-04T03:46:56.748Z,101508.50
2022-10-04T03:49:37.000Z,101533.25
2022-10-04T03:52:05.998Z,101484.16
2022-10-04T03:54:33.999Z,101545.50
2022-10-04T03:57:02.325Z,101423.75
2022-10-04T03:59:29.939Z,101502.19
2022-10-04T04:02:06.816Z,101534.00
2022-10-04T04:04:45.995Z,101532.56
2022-10-04T04:07:15.966Z,101497.03
2022-10-04T04:10:08.972Z,101534.69
2022-10-04T04:12:51.699Z,101535.28
2022-10-04T04:15:18.745Z,101470.03
2022-10-04T04:18:07.938Z,101489.56
2022-10-04T04:21:09.916Z,101539.63
2022-10-04T04:23:56.721Z,101543.47
2022-10-04T04:26:31.525Z,101546.97
2022-10-04T04:29:06.957Z,101547.88
2022-10-04T04:31:41.375Z,101545.81
2022-10-04T04:34:21.151Z,101538.41
2022-10-04T04:37:12.912Z,101536.06
2022-10-04T04:39:56.656Z,101500.34
2022-10-04T04:42:29.671Z,101557.31
2022-10-04T04:45:26.026Z,101567.13
2022-10-04T04:48:07.263Z,101557.19
2022-10-04T04:50:54.932Z,101565.72
2022-10-04T04:53:36.323Z,101573.06
2022-10-04T04:56:10.529Z,101514.91
2022-10-04T04:58:43.599Z,101503.03
2022-10-04T05:01:31.091Z,101572.59
2022-10-04T05:04:12.553Z,101578.09
2022-10-04T05:07:20.958Z,101532.03
2022-10-04T05:10:36.971Z,101527.84
2022-10-04T05:13:54.073Z,101510.38
2022-10-04T05:17:01.011Z,101574.78
2022-10-04T05:20:02.956Z,101557.56
2022-10-04T05:22:48.121Z,101579.41
2022-10-04T05:25:45.964Z,101574.56
2022-10-04T05:28:26.625Z,101560.53
2022-10-04T05:31:25.392Z,101545.88
2022-10-04T05:33:57.506Z,101599.03
2022-10-04T05:36:59.970Z,101606.91
2022-10-04T05:40:07.974Z,101606.41
2022-10-04T05:42:49.607Z,101574.22
2022-10-04T05:45:41.023Z,101531.50
2022-10-04T05:48:41.974Z,101615.53
2022-10-04T05:51:27.432Z,101619.22
2022-10-04T05:53:57.761Z,101614.97
2022-10-04T05:56:25.739Z,101624.72
2022-10-04T05:59:11.262Z,101632.09
2022-10-04T06:01:57.058Z,101629.53
2022-10-04T06:04:32.772Z,101626.19
2022-10-04T06:07:04.575Z,101625.41
2022-10-04T06:09:46.712Z,101619.44
2022-10-04T06:12:55.981Z,101589.94
2022-10-04T06:16:01.586Z,101634.06
2022-10-04T06:18:48.997Z,101643.88
2022-10-04T06:22:14.016Z,101644.25
2022-10-04T06:25:05.232Z,101637.84
2022-10-04T06:27:36.302Z,101665.84
2022-10-04T06:30:06.967Z,101650.34
2022-10-04T06:32:36.807Z,101681.00
2022-10-04T06:35:42.979Z,101671.19
2022-10-04T06:39:04.297Z,101686.03
2022-10-04T06:42:02.611Z,101676.06
2022-10-04T06:44:56.011Z,101690.94
2022-10-04T06:48:15.993Z,101695.69
2022-10-04T06:52:01.037Z,101681.69
2022-10-04T06:54:53.693Z,101704.16
2022-10-04T06:57:58.423Z,101704.13
2022-10-04T07:00:27.699Z,101683.88
2022-10-04T07:03:09.911Z,101707.78
2022-10-04T07:06:07.026Z,101718.09
2022-10-04T07:08:51.189Z,101707.66
2022-10-04T07:11:54.993Z,101679.66
2022-10-04T07:15:04.000Z,101701.63
2022-10-04T07:18:06.024Z,101698.41
2022-10-04T07:20:49.038Z,101714.56
2022-10-04T07:23:40.023Z,101738.44
2022-10-04T07:26:50.014Z,101733.72
2022-10-04T07:29:41.744Z,101739.28
2022-10-04T07:32:26.264Z,101715.69
2022-10-04T07:35:13.034Z,101747.66
2022-10-04T07:38:34.047Z,101724.69
2022-10-04T07:41:23.919Z,101740.75
2022-10-04T07:44:23.296Z,101677.69
2022-10-04T07:47:06.448Z,101743.66
2022-10-04T07:49:56.260Z,101744.09
2022-10-04T07:52:57.659Z,101734.75
2022-10-04T07:55:59.104Z,101734.81
2022-10-04T07:58:46.285Z,101724.56
2022-10-04T08:01:37.791Z,101732.91
2022-10-04T08:04:16.949Z,101730.59
2022-10-04T08:07:00.532Z,101730.53
2022-10-04T08:09:27.454Z,101741.16
2022-10-04T08:12:07.288Z,101675.03
2022-10-04T08:15:01.040Z,101745.72
2022-10-04T08:18:09.091Z,101737.03
2022-10-04T08:21:01.401Z,101741.28
2022-10-04T08:23:43.757Z,101731.41
2022-10-04T08:26:27.512Z,101738.03
2022-10-04T08:29:42.578Z,101687.44
2022-10-04T08:32:29.914Z,101740.28
2022-10-04T08:35:10.096Z,101734.25
2022-10-04T08:38:19.068Z,101737.06
2022-10-04T08:41:31.340Z,101741.44
2022-10-04T08:45:09.056Z,101745.09
2022-10-04T08:47:50.259Z,101746.91
2022-10-04T08:50:38.645Z,101752.91
2022-10-04T08:53:35.438Z,101709.31
2022-10-04T08:56:40.344Z,101762.13
2022-10-04T08:59:39.447Z,101766.38
2022-10-04T09:02:46.411Z,101769.47
2022-10-04T09:05:45.102Z,101769.47
2022-10-04T09:08:31.571Z,101769.66
2022-10-04T09:11:16.730Z,101779.53
2022-10-04T09:14:08.718Z,101784.31
2022-10-04T09:16:56.430Z,101754.31
2022-10-04T09:20:37.370Z,101773.53
2022-10-04T09:23:27.201Z,101789.91
2022-10-04T09:26:18.254Z,101789.91
2022-10-04T09:29:13.138Z,101794.88
2022-10-04T09:31:52.357Z,101792.41
2022-10-04T09:34:47.348Z,101788.56
2022-10-04T09:37:52.078Z,101790.41
2022-10-04T09:40:51.212Z,101785.53
2022-10-04T09:44:10.151Z,101791.56
2022-10-04T09:47:44.098Z,101788.84
2022-10-04T09:50:30.071Z,101788.22
2022-10-04T09:53:03.191Z,101784.69
2022-10-04T09:56:01.308Z,101791.28
2022-10-04T09:58:38.061Z,101793.28
2022-10-04T10:01:28.393Z,101786.63
2022-10-04T10:04:13.441Z,101792.28
2022-10-04T10:07:18.163Z,101744.66
2022-10-04T10:10:35.538Z,101790.19
2022-10-04T10:13:42.492Z,101793.03
2022-10-04T10:16:40.957Z,101799.41
2022-10-04T10:20:04.136Z,101787.97
2022-10-04T10:23:10.613Z,101733.72
2022-10-04T10:26:15.222Z,101791.50
2022-10-04T10:29:11.150Z,101784.38
2022-10-04T10:32:33.149Z,101781.75
2022-10-04T10:35:37.191Z,101788.78
2022-10-04T10:38:34.441Z,101783.44
2022-10-04T10:41:21.223Z,101778.91
2022-10-04T10:44:28.156Z,101779.56
2022-10-04T10:47:30.373Z,101777.69
2022-10-04T10:51:04.173Z,101781.88
2022-10-04T10:54:14.652Z,101786.91
2022-10-04T10:57:06.432Z,101787.66
2022-10-04T11:00:10.443Z,101766.50
2022-10-04T11:02:53.025Z,101792.06
2022-10-04T11:05:51.118Z,101789.50
2022-10-04T11:08:30.074Z,101784.88
2022-10-04T11:11:03.418Z,101787.84
2022-10-04T11:14:01.405Z,101787.66
2022-10-04T11:16:41.967Z,101791.91
2022-10-04T11:19:50.162Z,101779.88
2022-10-04T11:23:00.162Z,101780.81
2022-10-04T11:25:44.508Z,101736.38
2022-10-04T11:28:18.467Z,101769.25
2022-10-04T11:31:04.475Z,101770.13
2022-10-04T11:34:24.173Z,101767.41
2022-10-04T11:38:00.172Z,101763.81
2022-10-04T11:41:17.204Z,101707.94
2022-10-04T11:44:40.216Z,101774.13
2022-10-04T11:47:44.179Z,101770.09
2022-10-04T11:51:17.377Z,101741.63
2022-10-04T11:54:34.201Z,101767.13
2022-10-04T11:57:49.650Z,101740.56
2022-10-04T12:00:25.528Z,101707.81
2022-10-04T12:02:59.389Z,101765.94
2022-10-04T12:05:33.126Z,101755.41
2022-10-04T12:08:36.226Z,101760.88
2022-10-04T12:12:13.220Z,101752.97
2022-10-04T12:15:08.533Z,101754.81
2022-10-04T12:18:06.407Z,101739.09
2022-10-04T12:20:54.579Z,101733.69
2022-10-04T12:23:59.464Z,101737.25
2022-10-04T12:27:01.245Z,101724.84
2022-10-04T12:29:56.136Z,101722.16
2022-10-04T12:32:40.719Z,101723.97
2022-10-04T12:35:29.271Z,101725.72
2022-10-04T12:38:51.279Z,101712.41
2022-10-04T12:41:55.330Z,101707.94
2022-10-04T12:45:33.428Z,101667.13
2022-10-04T12:49:03.881Z,101706.16
2022-10-04T12:52:24.289Z,101714.22
2022-10-04T12:55:50.284Z,101705.19
2022-10-04T12:58:52.017Z,101689.22
2022-10-04T13:01:57.818Z,101671.53
2022-10-04T13:04:47.046Z,101697.31
2022-10-04T13:07:58.999Z,101690.22
2022-10-04T13:11:17.312Z,101691.09
2022-10-04T13:14:38.495Z,101691.97
2022-10-04T13:17:27.615Z,101684.88
2022-10-04T13:20:26.946Z,101683.97
2022-10-04T13:23:04.234Z,101682.94
2022-10-04T13:26:04.048Z,101577.41
2022-10-04T13:29:04.464Z,101676.00
2022-10-04T13:31:34.752Z,101673.34
2022-10-04T13:34:22.521Z,101674.22
2022-10-04T13:37:14.296Z,101662.66
2022-10-04T13:41:03.931Z,101672.34
2022-10-04T13:44:30.264Z,101665.16
2022-10-04T13:47:54.557Z,101666.13
2022-10-04T13:51:01.308Z,101669.72
2022-10-04T13:54:23.296Z,101668.00
2022-10-04T13:57:43.343Z,101674.22
2022-10-04T14:00:50.143Z,101636.06
2022-10-04T14:03:29.958Z,101674.22
2022-10-04T14:06:06.329Z,101671.56
2022-10-04T14:09:34.331Z,101670.69
2022-10-04T14:12:26.064Z,101615.56
2022-10-04T14:15:23.952Z,101674.19
2022-10-04T14:17:57.559Z,101675.94
2022-10-04T14:20:46.683Z,101668.88
2022-10-04T14:23:38.651Z,101669.81
2022-10-04T14:26:26.534Z,101563.25
2022-10-04T14:29:37.007Z,101546.34
2022-10-04T14:32:31.384Z,101651.16
2022-10-04T14:36:06.199Z,101670.66
2022-10-04T14:39:13.365Z,101671.56
2022-10-04T14:42:52.402Z,101569.41
2022-10-04T14:46:11.523Z,101669.75
2022-10-04T14:49:24.351Z,101668.88
2022-10-04T14:52:40.514Z,101660.00
2022-10-04T14:55:43.393Z,101656.47
2022-10-04T14:58:37.701Z,101660.00
2022-10-04T15:01:35.458Z,101655.56
2022-10-04T15:04:45.528Z,101667.09
2022-10-04T15:08:05.314Z,101455.78
2022-10-04T15:11:14.161Z,101555.19
2022-10-04T15:14:00.622Z,101602.25
2022-10-04T15:16:47.821Z,101546.31
2022-10-04T15:19:21.164Z,101659.09
2022-10-04T15:22:20.401Z,101527.69
2022-10-04T15:25:04.172Z,101643.13
2022-10-04T15:27:34.157Z,101649.34
2022-10-04T15:30:11.606Z,101637.81
2022-10-04T15:33:10.956Z,101654.69
2022-10-04T15:36:02.364Z,101655.56
2022-10-04T15:38:57.183Z,101572.09
2022-10-04T15:42:14.369Z,101633.38
2022-10-04T15:45:27.372Z,101648.47
2022-10-04T15:48:28.848Z,101648.47
2022-10-04T15:51:20.592Z,101649.38
2022-10-04T15:54:44.366Z,101659.09
2022-10-04T15:57:28.271Z,101658.19
2022-10-04T16:00:05.557Z,101659.03
2022-10-04T16:03:17.952Z,101660.78
2022-10-04T16:06:12.614Z,101660.69
2022-10-04T16:08:57.865Z,101652.66
2022-10-04T16:11:46.354Z,101672.16
2022-10-04T16:14:37.943Z,101673.03
2022-10-04T16:17:22.189Z,101587.63
2022-10-04T16:19:56.250Z,101680.06
2022-10-04T16:22:32.688Z,101683.56
2022-10-04T16:25:28.281Z,101604.38
2022-10-04T16:27:56.186Z,101683.66
2022-10-04T16:30:28.925Z,101688.88
2022-10-04T16:32:59.216Z,101689.78
2022-10-04T16:35:56.517Z,101600.81
2022-10-04T16:39:24.476Z,101690.50
2022-10-04T16:42:07.876Z,101709.97
2022-10-04T16:45:00.433Z,101707.25
2022-10-04T16:48:03.399Z,101703.63
2022-10-04T16:50:50.044Z,101703.50
2022-10-04T16:53:46.446Z,101710.66
2022-10-04T16:56:30.008Z,101714.97
2022-10-04T16:59:04.392Z,101714.81
2022-10-04T17:02:10.902Z,101716.31
2022-10-04T17:04:40.894Z,101717.94
2022-10-04T17:08:05.484Z,101723.41
2022-10-04T17:11:26.898Z,101731.19
2022-10-04T17:14:07.985Z,101700.69
2022-10-04T17:16:47.251Z,101744.25
2022-10-04T17:19:35.712Z,101727.38
2022-10-04T17:22:53.439Z,101748.81
2022-10-04T17:25:57.310Z,101696.91
2022-10-04T17:28:32.746Z,101761.69
2022-10-04T17:31:05.889Z,101763.47
2022-10-04T17:33:51.674Z,101739.09
2022-10-04T17:36:39.521Z,101756.84
2022-10-04T17:39:21.843Z,101780.16
2022-10-04T17:42:10.241Z,101785.94
2022-10-04T17:45:25.451Z,101791.91
2022-10-04T17:49:10.464Z,101795.25
2022-10-04T17:52:14.394Z,101757.78
2022-10-04T17:55:23.434Z,101799.28
2022-10-04T17:58:12.112Z,101772.56
2022-10-04T18:00:57.822Z,101787.91
2022-10-04T18:04:04.466Z,101694.19
2022-10-04T18:06:57.424Z,101667.16
2022-10-04T18:09:35.830Z,101803.03
2022-10-04T18:12:37.565Z,101701.59
2022-10-04T18:15:42.341Z,101795.91
2022-10-04T18:18:16.310Z,101805.41
2022-10-04T18:21:02.326Z,101807.09
2022-10-04T18:23:32.661Z,101811.19
2022-10-04T18:26:18.971Z,101804.13
2022-10-04T18:28:47.693Z,101783.34
2022-10-04T18:31:29.574Z,101773.53
2022-10-04T18:34:28.025Z,101825.69
2022-10-04T18:37:50.495Z,101816.25
2022-10-04T18:40:41.257Z,101817.53
2022-10-04T18:43:27.367Z,101718.53
2022-10-04T18:46:34.569Z,101825.41
2022-10-04T18:49:39.465Z,101837.63
2022-10-04T18:52:57.462Z,101835.03
2022-10-04T18:55:41.672Z,101848.22
2022-10-04T18:58:53.367Z,101843.59
2022-10-04T19:02:00.409Z,101850.03
2022-10-04T19:05:18.693Z,101853.44
2022-10-04T19:08:35.230Z,101771.22
2022-10-04T19:11:47.524Z,101863.19
2022-10-04T19:15:05.027Z,101869.19
2022-10-04T19:18:22.514Z,101869.00
2022-10-04T19:21:14.872Z,101854.50
2022-10-04T19:24:09.537Z,101859.78
2022-10-04T19:27:22.550Z,101847.22
2022-10-04T19:30:31.434Z,101892.88
2022-10-04T19:33:37.288Z,101893.69
2022-10-04T19:36:31.440Z,101848.75
2022-10-04T19:39:14.696Z,101893.34
2022-10-04T19:41:51.706Z,101869.03
2022-10-04T19:44:58.552Z,101895.75
2022-10-04T19:48:15.582Z,101900.97
2022-10-04T19:51:08.549Z,101757.88
2022-10-04T19:53:57.594Z,101861.81
2022-10-04T19:57:03.519Z,101909.69
2022-10-04T19:59:51.443Z,101853.38
2022-10-04T20:02:18.763Z,101890.72
2022-10-04T20:05:05.524Z,101915.72
2022-10-04T20:07:56.879Z,101780.53
2022-10-04T20:10:24.113Z,101925.81
2022-10-04T20:13:52.544Z,101923.84
2022-10-04T20:17:02.717Z,101928.25
2022-10-04T20:19:45.526Z,101788.84
2022-10-04T20:22:43.524Z,101915.63
2022-10-04T20:25:56.587Z,101939.63
2022-10-04T20:28:42.948Z,101910.28
2022-10-04T20:31:19.196Z,101944.47
2022-10-04T20:33:48.590Z,101934.25
2022-10-04T20:36:22.350Z,101941.47
2022-10-04T20:38:59.723Z,101945.78
2022-10-04T20:41:30.366Z,101962.34
2022-10-04T20:44:17.557Z,101940.63
2022-10-04T20:47:18.577Z,101960.31
2022-10-04T20:50:01.805Z,101954.69
2022-10-04T20:52:50.553Z,101933.91
2022-10-04T20:55:52.680Z,101888.88
2022-10-04T20:58:54.553Z,101964.06
2022-10-04T21:01:58.539Z,101959.34
2022-10-04T21:04:49.547Z,101933.41
2022-10-04T21:07:31.112Z,101969.25
2022-10-04T21:10:17.330Z,101932.69
2022-10-04T21:12:44.369Z,101939.88
2022-10-04T21:15:17.399Z,101978.03
2022-10-04T21:17:59.954Z,101980.00
2022-10-04T21:20:55.578Z,101971.66
2022-10-04T21:23:56.581Z,101882.34
2022-10-04T21:26:37.100Z,101975.47
2022-10-04T21:29:04.109Z,101977.19
2022-10-04T21:31:31.238Z,101981.44
2022-10-04T21:34:51.975Z,101989.03
2022-10-04T21:37:52.706Z,101936.22
2022-10-04T21:40:19.834Z,101985.22
2022-10-04T21:42:47.007Z,101757.88
2022-10-04T21:45:36.647Z,101900.78
2022-10-04T21:48:17.792Z,101957.38
2022-10-04T21:50:44.809Z,101997.88
2022-10-04T21:53:11.929Z,102002.94
2022-10-04T21:55:39.313Z,101895.91
2022-10-04T21:58:06.354Z,101934.88
2022-10-04T22:00:53.717Z,101885.91
2022-10-04T22:03:54.596Z,101974.75
2022-10-04T22:06:35.344Z,101968.06
2022-10-04T22:09:02.475Z,102007.34
2022-10-04T22:11:29.587Z,101978.06
2022-10-04T22:13:56.679Z,101893.81
2022-10-04T22:16:24.119Z,101954.31
2022-10-04T22:18:51.200Z,101914.03
2022-10-04T22:21:18.243Z,102016.88
2022-10-04T22:24:05.572Z,101975.50
2022-10-04T22:26:47.111Z,102029.88
2022-10-04T22:29:34.621Z,101996.22
2022-10-04T22:32:37.599Z,102034.50
2022-10-04T22:35:40.638Z,102005.69
2022-10-04T22:38:41.631Z,101980.50
2022-10-04T22:41:14.281Z,102035.19
2022-10-04T22:44:03.611Z,102046.50
2022-10-04T22:46:56.758Z,101981.06
2022-10-04T22:49:30.833Z,102045.34
2022-10-04T22:52:43.657Z,102056.28
2022-10-04T22:55:24.739Z,101990.44
2022-10-04T22:57:52.001Z,101998.63
2022-10-04T23:00:19.141Z,102013.06
2022-10-04T23:02:46.308Z,102046.34
2022-10-04T23:05:33.619Z,102026.91
2022-10-04T23:08:34.642Z,102040.50
2022-10-04T23:11:15.407Z,102017.84
2022-10-04T23:13:42.431Z,102048.50
2022-10-04T23:16:22.737Z,102034.53
2022-10-04T23:18:50.591Z,102070.13
2022-10-04T23:21:25.910Z,102070.50
2022-10-04T23:23:53.651Z,102039.31
2022-10-04T23:26:24.382Z,102079.03
2022-10-04T23:28:52.088Z,102067.34
2022-10-04T23:31:40.671Z,102039.03
2022-10-04T23:34:47.683Z,102006.47
2022-10-04T23:37:32.503Z,102069.28
2022-10-04T23:39:59.631Z,102060.66
2022-10-04T23:42:31.746Z,102015.81
2022-10-04T23:45:29.764Z,102045.88
2022-10-04T23:48:22.360Z,102069.63
2022-10-04T23:50:50.801Z,101989.78
2022-10-04T23:53:31.912Z,102056.41
2022-10-04T23:56:05.252Z,102046.25
2022-10-04T23:58:36.387Z,102023.56
